Time;durP1;ratioP1;P1;durP2;ratioP2;P2;SDS_P1;SDS_P2;PMS_P1;PMS_P2;Temp;Humidity;BMP_temperature;BMP_pressure;BME280_temperature;BME280_humidity;BME280_pressure;Samples;Min_cycle;Max_cycle;Signal;HPM_P1;HPM_P2
2022/12/17 13:08:21;;;;;;;67.17;23.43;;;-1.30;99.90;;;;;;5226172;28;20947;-48
2022/12/17 13:10:53;;;;;;;76.17;26.53;;;-1.30;99.90;;;;;;5225130;28;20429;-50
2022/12/17 13:13:35;;;;;;;62.10;25.90;;;-1.30;99.90;;;;;;5224781;28;20980;-48
2022/12/17 13:16:30;;;;;;;78.27;26.93;;;-1.40;99.90;;;;;;5222329;28;20433;-49
2022/12/17 13:19:18;;;;;;;70.73;25.50;;;-1.40;99.90;;;;;;5224436;28;20498;-50
2022/12/17 13:21:49;;;;;;;79.97;25.90;;;-1.30;99.90;;;;;;5216508;28;20476;-52
2022/12/17 13:24:25;;;;;;;71.87;28.90;;;-1.40;99.90;;;;;;5232195;28;21175;-51
2022/12/17 13:26:56;;;;;;;92.63;27.13;;;-1.50;99.90;;;;;;5220852;28;20179;-49
2022/12/17 13:29:32;;;;;;;73.57;28.47;;;-1.50;99.90;;;;;;5220744;28;20482;-50
2022/12/17 13:32:14;;;;;;;70.03;28.57;;;-1.60;99.90;;;;;;5222212;28;20178;-48
2022/12/17 13:34:50;;;;;;;70.33;27.10;;;-1.40;99.90;;;;;;5219398;28;20471;-50
2022/12/17 13:37:51;;;;;;;72.07;25.97;;;-1.50;99.90;;;;;;5224665;28;20469;-47
2022/12/17 13:40:43;;;;;;;79.23;30.97;;;-1.40;99.90;;;;;;5224564;28;20441;-49
2022/12/17 13:43:20;;;;;;;63.40;27.60;;;-1.40;99.90;;;;;;5221993;28;20472;-48
2022/12/17 13:45:54;;;;;;;74.10;29.90;;;-1.40;99.90;;;;;;5222187;28;20528;-49
2022/12/17 13:48:27;;;;;;;74.53;28.77;;;-1.40;99.90;;;;;;5225372;28;20413;-49
2022/12/17 13:51:00;;;;;;;81.33;27.97;;;-1.40;99.90;;;;;;5224218;28;20812;-48
2022/12/17 13:53:33;;;;;;;81.20;28.27;;;-1.50;99.90;;;;;;5225297;28;20449;-49
2022/12/17 13:56:04;;;;;;;76.53;27.23;;;-1.30;99.90;;;;;;5224228;28;20436;-49
2022/12/17 13:58:35;;;;;;;66.93;26.07;;;-1.50;99.90;;;;;;5223179;28;20433;-48
2022/12/17 14:01:08;;;;;;;88.43;30.60;;;-1.40;99.90;;;;;;5223009;28;20183;-48
2022/12/17 14:03:47;;;;;;;71.87;28.17;;;-1.50;99.90;;;;;;5237634;28;20504;-50
2022/12/17 14:06:19;;;;;;;72.27;27.83;;;-1.70;99.90;;;;;;5220088;28;20432;-50
2022/12/17 14:08:52;;;;;;;65.17;27.23;;;-1.80;99.90;;;;;;5205142;28;20847;-49
2022/12/17 14:14:25;;;;;;;73.10;28.17;;;-1.80;99.90;;;;;;5219038;28;20461;-49
2022/12/17 14:16:56;;;;;;;71.53;26.50;;;-1.90;99.90;;;;;;5221587;28;21006;-50
2022/12/17 14:19:29;;;;;;;58.33;25.23;;;-1.90;99.90;;;;;;5222088;28;20443;-48
2022/12/17 14:22:00;;;;;;;72.80;27.67;;;-1.80;99.90;;;;;;5219926;28;20922;-50
2022/12/17 14:24:31;;;;;;;90.07;28.90;;;-1.70;99.90;;;;;;5238758;28;20453;-48
2022/12/17 14:27:02;;;;;;;70.13;26.73;;;-1.80;99.90;;;;;;5203426;28;20186;-50
2022/12/17 14:29:33;;;;;;;72.27;27.80;;;-1.60;99.90;;;;;;5218034;28;20237;-49
2022/12/17 14:32:22;;;;;;;65.87;25.93;;;-1.70;99.90;;;;;;5220286;28;20517;-50
2022/12/17 14:34:53;;;;;;;84.17;29.50;;;-1.80;99.90;;;;;;5218158;28;20207;-50
2022/12/17 14:37:25;;;;;;;79.90;30.53;;;-1.70;99.90;;;;;;5219715;28;20441;-50
2022/12/17 14:40:01;;;;;;;119.07;33.80;;;-1.70;99.90;;;;;;5221384;28;20282;-50
2022/12/17 14:42:35;;;;;;;70.77;29.00;;;-1.80;99.90;;;;;;5220160;28;20535;-52
2022/12/17 14:45:23;;;;;;;87.47;30.03;;;-1.90;99.90;;;;;;5221393;28;20843;-49
2022/12/17 14:47:59;;;;;;;87.83;31.80;;;-1.90;99.90;;;;;;5235499;28;20522;-51
2022/12/17 14:50:35;;;;;;;82.10;31.27;;;-1.80;99.90;;;;;;5225081;28;20441;-49
2022/12/17 14:53:26;;;;;;;72.33;29.90;;;-1.90;99.90;;;;;;5218883;28;20571;-50
2022/12/17 14:55:58;;;;;;;74.87;28.77;;;-1.90;99.90;;;;;;5216803;28;20437;-50
2022/12/17 14:58:29;;;;;;;83.83;28.33;;;-1.90;99.90;;;;;;5220645;28;20439;-50
2022/12/17 15:01:07;;;;;;;75.20;29.10;;;-1.90;99.90;;;;;;5225825;28;20789;-50
2022/12/17 15:03:41;;;;;;;71.60;27.77;;;-1.90;99.90;;;;;;5222117;28;20214;-49
2022/12/17 15:06:18;;;;;;;63.03;26.73;;;-2.10;99.90;;;;;;5223147;28;20768;-52
2022/12/17 15:08:51;;;;;;;73.23;28.97;;;-1.80;99.90;;;;;;5236129;28;20472;-51
2022/12/17 15:11:23;;;;;;;60.57;25.33;;;-2.00;99.90;;;;;;5223194;28;20429;-52
2022/12/17 15:13:54;;;;;;;84.77;29.37;;;-2.10;99.90;;;;;;5221763;28;20879;-51
2022/12/17 15:16:25;;;;;;;68.60;28.10;;;-1.90;99.90;;;;;;5222283;28;20437;-51
2022/12/17 15:18:55;;;;;;;90.67;30.43;;;-2.10;99.90;;;;;;5223118;28;20456;-49
2022/12/17 15:21:26;;;;;;;78.90;29.10;;;-2.30;99.90;;;;;;5222299;28;20183;-50
2022/12/17 15:23:57;;;;;;;98.63;32.00;;;-2.30;99.90;;;;;;5220234;28;20301;-50
2022/12/17 15:26:29;;;;;;;79.10;31.07;;;-2.50;99.90;;;;;;5222849;28;20467;-51
2022/12/17 15:29:01;;;;;;;96.10;34.07;;;-2.50;99.90;;;;;;5221301;28;20445;-51
2022/12/17 15:31:31;;;;;;;80.23;30.20;;;-2.50;99.90;;;;;;5224410;28;20262;-47
2022/12/17 15:34:02;;;;;;;66.67;27.30;;;-2.60;99.90;;;;;;5222480;28;20529;-51
2022/12/17 15:36:33;;;;;;;86.20;31.07;;;-2.60;99.90;;;;;;5222604;28;20267;-47
2022/12/17 15:39:05;;;;;;;73.30;28.70;;;-2.50;99.90;;;;;;5221624;28;20193;-49
2022/12/17 15:44:25;;;;;;;73.57;30.33;;;-2.40;99.90;;;;;;5221426;28;20547;-50
2022/12/17 15:46:59;;;;;;;85.97;29.13;;;-2.30;99.90;;;;;;5222237;28;20441;-48
2022/12/17 15:49:29;;;;;;;71.83;26.80;;;-2.30;99.90;;;;;;5221712;28;20272;-48
2022/12/17 15:52:00;;;;;;;87.27;31.00;;;-2.40;99.90;;;;;;5223051;28;20469;-50
2022/12/17 15:54:31;;;;;;;72.67;28.13;;;-2.30;99.90;;;;;;5221686;28;20230;-51
2022/12/17 15:57:02;;;;;;;89.17;31.93;;;-2.30;99.90;;;;;;5224224;28;20206;-50
2022/12/17 15:59:32;;;;;;;90.60;32.67;;;-2.30;99.90;;;;;;5223337;28;20210;-47
2022/12/17 16:02:03;;;;;;;100.57;30.60;;;-2.30;99.90;;;;;;5223327;28;20206;-48
2022/12/17 16:04:33;;;;;;;94.03;33.27;;;-2.20;99.90;;;;;;5223026;28;20203;-48
2022/12/17 16:07:04;;;;;;;108.77;35.00;;;-2.20;99.90;;;;;;5221459;28;20231;-50
2022/12/17 16:09:35;;;;;;;98.07;31.70;;;-2.20;99.90;;;;;;5222152;28;20217;-49
2022/12/17 16:12:06;;;;;;;86.87;29.93;;;-2.10;99.90;;;;;;5224565;28;20482;-48
2022/12/17 16:14:37;;;;;;;73.30;26.10;;;-2.20;99.90;;;;;;5226234;28;20206;-48
2022/12/17 16:17:07;;;;;;;83.60;30.40;;;-2.40;99.90;;;;;;5221558;28;20285;-48
2022/12/17 16:19:38;;;;;;;87.70;28.90;;;-2.40;99.90;;;;;;5225853;28;20187;-49
2022/12/17 16:22:09;;;;;;;76.53;27.57;;;-2.50;99.90;;;;;;5226319;28;20199;-48
2022/12/17 16:24:39;;;;;;;67.60;27.20;;;-2.40;99.90;;;;;;5221975;28;20642;-52
2022/12/17 16:27:12;;;;;;;87.53;28.90;;;-2.30;99.90;;;;;;5225042;28;20186;-47
2022/12/17 16:29:44;;;;;;;76.57;28.13;;;-2.30;99.90;;;;;;5223249;28;20456;-49
2022/12/17 16:32:15;;;;;;;77.63;26.07;;;-2.20;99.90;;;;;;5223445;28;20513;-49
2022/12/17 16:34:46;;;;;;;67.77;24.70;;;-2.10;99.90;;;;;;5223189;28;20471;-47
2022/12/17 16:37:17;;;;;;;66.33;25.70;;;-2.10;99.90;;;;;;5210548;28;20445;-51
2022/12/17 16:39:49;;;;;;;90.73;28.30;;;-2.10;99.90;;;;;;5208798;28;20182;-52
2022/12/17 16:42:19;;;;;;;68.67;26.77;;;-1.90;99.90;;;;;;5218262;28;20811;-51
2022/12/17 16:44:50;;;;;;;57.93;25.07;;;-2.00;99.90;;;;;;5240087;28;20468;-52
2022/12/17 16:47:21;;;;;;;62.80;24.57;;;-2.10;99.90;;;;;;5238402;28;20289;-49
2022/12/17 16:49:52;;;;;;;61.60;24.93;;;-2.20;99.90;;;;;;5218675;28;20189;-47
2022/12/17 16:52:22;;;;;;;75.53;23.60;;;-2.20;99.90;;;;;;5224829;28;20226;-46
2022/12/17 16:54:53;;;;;;;90.63;29.67;;;-2.30;99.90;;;;;;5222300;28;20750;-52
2022/12/17 16:57:24;;;;;;;76.10;28.23;;;-2.20;99.90;;;;;;5227450;28;20190;-48
2022/12/17 16:59:55;;;;;;;70.33;26.27;;;-2.30;99.90;;;;;;5218594;28;20187;-49
2022/12/17 17:02:26;;;;;;;76.23;26.60;;;-2.20;99.90;;;;;;5223302;28;20486;-48
2022/12/17 17:04:56;;;;;;;63.97;24.57;;;-2.20;99.90;;;;;;5216779;28;20219;-52
2022/12/17 17:07:27;;;;;;;66.67;25.90;;;-2.30;99.90;;;;;;5221460;28;20261;-50
2022/12/17 17:09:58;;;;;;;77.30;28.33;;;-2.20;99.90;;;;;;5226394;28;20182;-49
2022/12/17 17:12:29;;;;;;;69.37;28.03;;;-2.30;99.90;;;;;;5223688;28;20812;-49
2022/12/17 17:14:59;;;;;;;65.67;25.40;;;-2.50;99.90;;;;;;5222619;28;21202;-49
2022/12/17 17:17:30;;;;;;;56.70;25.87;;;-2.30;99.90;;;;;;5226122;28;20524;-49
2022/12/17 17:20:00;;;;;;;69.30;26.30;;;-2.40;99.90;;;;;;5228799;28;20885;-48
2022/12/17 17:22:31;;;;;;;53.80;24.47;;;-2.40;99.90;;;;;;5223012;28;20206;-48
2022/12/17 17:25:02;;;;;;;46.37;22.60;;;-2.40;99.90;;;;;;5222220;28;20573;-54
2022/12/17 17:27:33;;;;;;;68.03;25.70;;;-2.40;99.90;;;;;;5223988;28;20171;-50
2022/12/17 17:30:04;;;;;;;65.27;25.50;;;-2.40;99.90;;;;;;5221436;28;20417;-53
2022/12/17 17:32:34;;;;;;;61.43;25.67;;;-2.50;99.90;;;;;;5222652;28;20186;-49
2022/12/17 17:35:05;;;;;;;66.30;26.50;;;-2.50;99.90;;;;;;5227294;28;20795;-48
2022/12/17 17:37:36;;;;;;;74.37;26.67;;;-2.40;99.90;;;;;;5226852;28;20198;-48
2022/12/17 17:40:07;;;;;;;62.70;27.03;;;-2.30;99.90;;;;;;5202916;28;20444;-52
2022/12/17 17:42:38;;;;;;;63.90;27.20;;;-2.30;99.90;;;;;;5219149;28;20211;-48
2022/12/17 17:45:09;;;;;;;60.40;26.03;;;-2.40;99.90;;;;;;5221958;28;20446;-49
2022/12/17 17:47:40;;;;;;;78.80;30.60;;;-2.50;99.90;;;;;;5219946;28;20678;-51
2022/12/17 17:50:10;;;;;;;90.27;29.73;;;-2.60;99.90;;;;;;5223395;28;26759;-53
2022/12/17 17:52:41;;;;;;;70.57;27.90;;;-2.60;99.90;;;;;;5222885;28;20179;-51
2022/12/17 17:55:12;;;;;;;78.23;30.00;;;-2.60;99.90;;;;;;5225103;28;20190;-52
2022/12/17 17:57:42;;;;;;;90.37;29.57;;;-2.40;99.90;;;;;;5205212;28;20187;-52
2022/12/17 18:00:14;;;;;;;87.37;33.47;;;-2.40;99.90;;;;;;5220898;28;20706;-54
2022/12/17 18:02:44;;;;;;;84.67;30.53;;;-2.30;99.90;;;;;;5211266;28;20575;-49
2022/12/17 18:05:15;;;;;;;84.83;32.37;;;-2.20;99.90;;;;;;5219501;28;20437;-53
2022/12/17 18:07:46;;;;;;;77.17;28.90;;;-2.30;99.90;;;;;;5218790;28;20224;-52
2022/12/17 18:10:17;;;;;;;75.83;28.93;;;-2.30;99.90;;;;;;5222528;28;20179;-51
2022/12/17 18:15:37;;;;;;;59.10;26.50;;;-2.30;99.90;;;;;;5215098;28;20682;-52
2022/12/17 18:18:07;;;;;;;62.67;26.83;;;-2.30;99.90;;;;;;5203581;28;20441;-51
2022/12/17 18:20:38;;;;;;;68.77;24.80;;;-2.30;99.90;;;;;;5220881;28;20194;-51
2022/12/17 18:23:09;;;;;;;58.60;23.60;;;-2.30;99.90;;;;;;5220851;28;20214;-51
2022/12/17 18:25:40;;;;;;;59.50;25.23;;;-2.40;99.90;;;;;;5217092;28;20194;-51
2022/12/17 18:28:10;;;;;;;61.63;24.17;;;-2.30;99.90;;;;;;5213012;28;20438;-50
2022/12/17 18:30:44;;;;;;;59.83;25.70;;;-2.40;99.90;;;;;;5225159;28;20191;-50
2022/12/17 18:33:15;;;;;;;59.13;24.63;;;-2.40;99.90;;;;;;5224206;28;20219;-52
2022/12/17 18:35:45;;;;;;;74.40;29.30;;;-2.30;99.90;;;;;;5222959;28;20456;-52
2022/12/17 18:38:16;;;;;;;61.30;26.57;;;-2.60;99.90;;;;;;5212522;28;20203;-51
2022/12/17 18:40:47;;;;;;;63.77;27.57;;;-2.50;99.90;;;;;;5215812;28;20197;-51
2022/12/17 18:43:23;;;;;;;52.17;22.23;;;-2.40;99.90;;;;;;5216573;28;20219;-51
2022/12/17 18:45:54;;;;;;;59.73;24.40;;;-2.50;99.90;;;;;;5219993;28;20263;-51
2022/12/17 18:48:25;;;;;;;59.07;23.27;;;-2.50;99.90;;;;;;5219807;28;20467;-52
2022/12/17 18:51:04;;;;;;;84.93;26.50;;;-2.60;99.90;;;;;;5224005;28;20186;-51
2022/12/17 18:53:35;;;;;;;71.17;28.40;;;-2.50;99.90;;;;;;5223556;28;21641;-52
2022/12/17 18:56:10;;;;;;;58.00;24.07;;;-2.40;99.90;;;;;;5223965;28;20467;-50
2022/12/17 18:58:42;;;;;;;71.27;24.87;;;-2.80;99.90;;;;;;5217639;28;20190;-51
2022/12/17 19:01:22;;;;;;;55.70;24.27;;;-2.60;99.90;;;;;;5201792;28;20551;-51
2022/12/17 19:03:53;;;;;;;69.87;26.30;;;-2.80;99.90;;;;;;5221437;28;20564;-51
2022/12/17 19:06:24;;;;;;;63.33;25.80;;;-2.90;99.90;;;;;;5224184;28;20449;-52
2022/12/17 19:08:54;;;;;;;75.00;27.07;;;-2.90;99.90;;;;;;5223096;28;20964;-51
2022/12/17 19:11:26;;;;;;;52.97;22.77;;;-3.00;99.90;;;;;;5219165;28;20552;-51
2022/12/17 19:13:57;;;;;;;64.40;27.83;;;-3.10;99.90;;;;;;5201692;28;21817;-50
2022/12/17 19:16:28;;;;;;;66.40;23.90;;;-3.00;99.90;;;;;;5217551;28;20479;-51
2022/12/17 19:19:03;;;;;;;71.57;26.20;;;-2.90;99.90;;;;;;5217388;28;20194;-51
2022/12/17 19:21:34;;;;;;;51.40;22.33;;;-2.90;99.90;;;;;;5218336;28;20442;-51
2022/12/17 19:24:07;;;;;;;62.57;24.50;;;-2.90;99.90;;;;;;5220948;28;21045;-53
2022/12/17 19:26:37;;;;;;;62.97;23.10;;;-2.80;99.90;;;;;;5220007;28;20525;-51
2022/12/17 19:29:09;;;;;;;60.07;24.20;;;-2.80;99.90;;;;;;5219602;28;20440;-52
2022/12/17 19:31:40;;;;;;;52.87;22.13;;;-2.70;99.90;;;;;;5222502;28;20507;-52
2022/12/17 19:34:13;;;;;;;46.10;21.07;;;-2.70;99.90;;;;;;5218748;28;21045;-51
2022/12/17 19:36:44;;;;;;;53.00;21.97;;;-2.80;99.90;;;;;;5222605;28;20436;-51
2022/12/17 19:39:17;;;;;;;73.73;25.30;;;-2.90;99.90;;;;;;5221292;28;20475;-51
2022/12/17 19:41:49;;;;;;;79.27;26.97;;;-3.30;99.90;;;;;;5206358;28;20433;-51
2022/12/17 19:44:20;;;;;;;78.60;24.80;;;-3.40;99.90;;;;;;5219984;28;20458;-52
2022/12/17 19:46:51;;;;;;;69.63;26.17;;;-3.40;99.90;;;;;;5217100;28;20463;-50
2022/12/17 19:49:22;;;;;;;77.80;26.13;;;-3.40;99.90;;;;;;5222025;28;20611;-51
2022/12/17 19:51:53;;;;;;;71.30;28.27;;;-3.20;99.90;;;;;;5210705;28;20180;-51
2022/12/17 19:54:23;;;;;;;78.90;27.73;;;-3.10;99.90;;;;;;5220890;28;20204;-52
2022/12/17 19:56:54;;;;;;;74.53;28.70;;;-3.20;99.90;;;;;;5217726;28;20958;-50
2022/12/17 19:59:25;;;;;;;88.10;28.07;;;-3.20;99.90;;;;;;5216764;28;20449;-51
2022/12/17 20:01:56;;;;;;;83.27;27.37;;;-3.20;99.90;;;;;;5219844;28;20630;-52
2022/12/17 20:04:27;;;;;;;51.57;21.87;;;-3.10;99.90;;;;;;5224576;28;20577;-51
2022/12/17 20:06:59;;;;;;;71.47;24.77;;;-3.20;99.90;;;;;;5219710;28;20188;-50
2022/12/17 20:09:30;;;;;;;61.50;24.07;;;-3.10;99.90;;;;;;5215810;28;20207;-51
2022/12/17 20:12:01;;;;;;;88.50;26.47;;;-3.10;99.90;;;;;;5218173;28;21004;-52
2022/12/17 20:14:33;;;;;;;58.63;23.80;;;-3.20;99.90;;;;;;5218671;28;20230;-52
2022/12/17 20:17:04;;;;;;;70.40;25.80;;;-3.30;99.90;;;;;;5222155;28;20182;-52
2022/12/17 20:19:35;;;;;;;72.83;28.50;;;-3.30;99.90;;;;;;5222122;28;20518;-52
2022/12/17 20:22:06;;;;;;;65.20;24.93;;;-3.20;99.90;;;;;;5224779;28;20977;-49
2022/12/17 20:24:38;;;;;;;73.93;24.60;;;-3.10;99.90;;;;;;5221244;28;20449;-48
2022/12/17 20:27:09;;;;;;;70.00;24.57;;;-3.30;99.90;;;;;;5222918;28;20196;-50
2022/12/17 20:29:40;;;;;;;59.83;22.17;;;-3.30;99.90;;;;;;5224359;28;20523;-50
2022/12/17 20:32:11;;;;;;;70.43;24.50;;;-3.40;99.90;;;;;;5220532;28;20536;-52
2022/12/17 20:34:41;;;;;;;52.83;22.30;;;-3.20;99.90;;;;;;5219374;28;20220;-50
2022/12/17 20:37:12;;;;;;;65.00;23.10;;;-3.50;99.90;;;;;;5223184;28;20717;-51
2022/12/17 20:39:43;;;;;;;61.27;21.70;;;-3.40;99.90;;;;;;5222303;28;20286;-51
2022/12/17 20:42:14;;;;;;;58.57;22.70;;;-3.60;99.90;;;;;;5223031;28;20231;-52
2022/12/17 20:44:44;;;;;;;66.40;22.30;;;-3.60;99.90;;;;;;5220567;28;20218;-53
2022/12/17 20:47:15;;;;;;;54.33;21.43;;;-3.70;99.90;;;;;;5238063;28;20809;-52
2022/12/17 20:49:45;;;;;;;63.63;22.70;;;-3.70;99.90;;;;;;5221592;28;20655;-52
2022/12/17 20:52:16;;;;;;;59.40;22.17;;;-3.80;99.90;;;;;;5222144;28;20707;-52
2022/12/17 20:54:48;;;;;;;61.13;22.37;;;-3.80;99.90;;;;;;5221455;28;21600;-49
2022/12/17 20:57:18;;;;;;;60.60;23.93;;;-3.90;99.90;;;;;;5223306;28;20651;-52
2022/12/17 20:59:49;;;;;;;75.43;25.57;;;-4.00;99.90;;;;;;5222398;28;20449;-53
2022/12/17 21:02:20;;;;;;;78.90;25.50;;;-4.10;99.90;;;;;;5220364;28;20384;-51
2022/12/17 21:04:50;;;;;;;66.27;24.47;;;-4.10;99.90;;;;;;5215236;28;20662;-51
2022/12/17 21:07:21;;;;;;;76.97;27.13;;;-4.10;99.90;;;;;;5219634;28;20216;-52
2022/12/17 21:09:52;;;;;;;71.10;24.93;;;-4.00;99.90;;;;;;5220557;28;20545;-51
2022/12/17 21:13:27;;;;;;;59.00;23.13;;;-4.10;99.90;;;;;;5213238;28;20230;-50
2022/12/17 21:15:13;;;;;;;66.97;24.70;;;-4.20;99.90;;;;;;5218881;28;20429;-52
2022/12/17 21:17:44;;;;;;;59.77;23.67;;;-4.30;99.90;;;;;;5216764;28;20438;-52
2022/12/17 21:20:15;;;;;;;66.37;24.37;;;-4.10;99.90;;;;;;5222162;28;20182;-52
2022/12/17 21:22:45;;;;;;;55.33;23.50;;;-4.00;99.90;;;;;;5220035;28;20292;-51
2022/12/17 21:25:16;;;;;;;54.50;23.67;;;-4.00;99.90;;;;;;5218021;28;20371;-52
2022/12/17 21:27:47;;;;;;;54.90;22.77;;;-4.00;99.90;;;;;;5217891;28;20657;-51
2022/12/17 21:30:18;;;;;;;68.07;25.37;;;-4.00;99.90;;;;;;5225510;28;20180;-48
2022/12/17 21:32:48;;;;;;;61.13;23.43;;;-4.00;99.90;;;;;;5220707;28;20204;-51
2022/12/17 21:35:19;;;;;;;76.00;26.77;;;-4.00;99.90;;;;;;5224335;28;20317;-54
2022/12/17 21:37:50;;;;;;;72.87;24.13;;;-4.10;99.90;;;;;;5220045;28;20190;-51
2022/12/17 21:40:21;;;;;;;73.40;26.87;;;-4.20;99.90;;;;;;5226297;28;20282;-49
2022/12/17 21:43:00;;;;;;;91.47;29.20;;;-4.40;99.90;;;;;;5237151;28;20476;-50
2022/12/17 21:45:36;;;;;;;86.30;28.37;;;-4.40;99.90;;;;;;5220752;28;20182;-47
2022/12/17 21:48:09;;;;;;;87.27;28.60;;;-4.50;99.90;;;;;;5221794;28;20451;-50
2022/12/17 21:50:41;;;;;;;77.80;27.37;;;-4.40;99.90;;;;;;5222050;28;20565;-48
2022/12/17 21:53:12;;;;;;;86.20;29.40;;;-4.50;99.90;;;;;;5226753;28;20484;-49
2022/12/17 21:55:43;;;;;;;65.43;26.60;;;-4.50;99.90;;;;;;5226097;28;20441;-49
2022/12/17 21:58:14;;;;;;;94.07;27.70;;;-4.60;99.90;;;;;;5218686;28;20503;-48
2022/12/17 22:00:45;;;;;;;79.83;27.60;;;-4.70;99.90;;;;;;5220605;28;20225;-47
2022/12/17 22:03:15;;;;;;;82.40;26.60;;;-4.70;99.90;;;;;;5208782;28;20229;-50
2022/12/17 22:05:46;;;;;;;77.90;29.63;;;-4.60;99.90;;;;;;5218929;28;20179;-49
2022/12/17 22:08:17;;;;;;;150.33;53.17;;;-4.70;99.90;;;;;;5217620;28;20186;-52
2022/12/17 22:10:48;;;;;;;89.07;28.77;;;-4.70;99.90;;;;;;5221451;28;20717;-48
2022/12/17 22:16:08;;;;;;;63.83;26.77;;;-4.50;99.90;;;;;;5217383;28;20186;-48
2022/12/17 22:18:42;;;;;;;78.13;26.30;;;-4.20;99.90;;;;;;5211371;28;20468;-50
2022/12/17 22:21:12;;;;;;;65.80;26.17;;;-4.10;99.90;;;;;;5220678;28;20600;-49
2022/12/17 22:23:47;;;;;;;61.03;24.70;;;-4.20;99.90;;;;;;5223116;28;20552;-47
2022/12/17 22:26:19;;;;;;;76.40;25.33;;;-4.40;99.90;;;;;;5229907;28;20237;-52
2022/12/17 22:28:50;;;;;;;55.90;23.10;;;-4.30;99.90;;;;;;5225623;28;20502;-51
2022/12/17 22:34:12;;;;;;;68.83;23.90;;;-4.30;99.90;;;;;;5219279;28;20648;-50
2022/12/17 22:36:42;;;;;;;54.13;22.70;;;-4.30;99.90;;;;;;5225159;28;21038;-51
2022/12/17 22:39:14;;;;;;;63.37;23.40;;;-4.20;99.90;;;;;;5212483;28;20529;-51
2022/12/17 22:44:34;;;;;;;57.97;20.73;;;-4.00;99.90;;;;;;5227801;28;20858;-50
2022/12/17 22:47:05;;;;;;;60.07;21.13;;;-4.20;99.90;;;;;;5228453;28;20425;-50
2022/12/17 22:49:36;;;;;;;49.20;20.53;;;-4.20;99.90;;;;;;5223923;28;20178;-49
2022/12/17 22:52:06;;;;;;;47.53;21.27;;;-4.30;99.90;;;;;;5236242;28;20184;-51
2022/12/17 22:54:37;;;;;;;59.17;22.20;;;-4.10;99.90;;;;;;5218182;28;20603;-49
2022/12/17 22:57:11;;;;;;;39.13;17.23;;;-4.10;99.90;;;;;;5217153;28;20182;-50
2022/12/17 22:59:41;;;;;;;53.63;20.90;;;-4.20;99.90;;;;;;5227627;28;20219;-50
2022/12/17 23:02:12;;;;;;;71.67;27.23;;;-4.10;99.90;;;;;;5225831;28;20492;-50
2022/12/17 23:04:44;;;;;;;54.83;24.67;;;-4.10;99.90;;;;;;5216253;28;20287;-51
2022/12/17 23:07:14;;;;;;;53.27;20.63;;;-4.10;99.90;;;;;;5220426;28;20644;-50
2022/12/17 23:09:45;;;;;;;49.60;20.67;;;-4.10;99.90;;;;;;5223238;28;20435;-50
2022/12/17 23:15:05;;;;;;;57.03;21.80;;;-4.10;99.90;;;;;;5223641;28;20674;-50
2022/12/17 23:17:36;;;;;;;57.30;21.90;;;-4.20;99.90;;;;;;5217589;28;20474;-52
2022/12/17 23:20:07;;;;;;;64.77;24.33;;;-4.30;99.90;;;;;;5236315;28;20945;-51
2022/12/17 23:22:38;;;;;;;49.20;20.33;;;-4.30;99.90;;;;;;5221810;28;20705;-50
2022/12/17 23:25:09;;;;;;;54.80;22.20;;;-4.30;99.90;;;;;;5219847;28;20440;-50
2022/12/17 23:27:44;;;;;;;54.43;20.63;;;-4.30;99.90;;;;;;5220658;28;20239;-50
2022/12/17 23:30:16;;;;;;;53.50;18.90;;;-4.30;99.90;;;;;;5215207;28;20469;-48
2022/12/17 23:32:47;;;;;;;51.63;21.30;;;-4.30;99.90;;;;;;5223958;28;20489;-49
2022/12/17 23:35:17;;;;;;;52.10;19.27;;;-4.20;99.90;;;;;;5225673;28;20838;-48
2022/12/17 23:37:48;;;;;;;54.57;19.67;;;-4.20;99.90;;;;;;5225497;28;20243;-51
2022/12/17 23:40:19;;;;;;;53.97;20.00;;;-4.20;99.90;;;;;;5222999;28;20620;-50
2022/12/17 23:42:49;;;;;;;48.80;20.47;;;-4.20;99.90;;;;;;5223835;28;20204;-49
2022/12/17 23:45:20;;;;;;;53.67;22.23;;;-4.30;99.90;;;;;;5232184;28;20290;-51
2022/12/17 23:47:51;;;;;;;68.93;21.10;;;-4.20;99.90;;;;;;5224749;28;20764;-51
2022/12/17 23:50:21;;;;;;;45.43;19.20;;;-4.30;99.90;;;;;;5225665;28;20275;-48
2022/12/17 23:52:52;;;;;;;62.17;23.60;;;-4.30;99.90;;;;;;5223381;28;20207;-49
2022/12/17 23:55:23;;;;;;;53.20;20.03;;;-4.40;99.90;;;;;;5224246;28;20177;-50
2022/12/17 23:57:58;;;;;;;56.20;21.97;;;-4.40;99.90;;;;;;5229485;28;20187;-50
